Time;durP1;ratioP1;P1;durP2;ratioP2;P2;SDS_P1;SDS_P2;PMS_P1;PMS_P2;Temp;Humidity;BMP_temperature;BMP_pressure;BME280_temperature;BME280_humidity;BME280_pressure;Samples;Min_cycle;Max_cycle;Signal;HPM_P1;HPM_P2
2022/12/19 00:01:16;;;;;;;5.15;2.25;;;9.50;99.90;;;;;;5070642;28;20408;-69
2022/12/19 00:03:54;;;;;;;3.45;2.22;;;9.60;99.90;;;;;;5079671;28;20100;-69
2022/12/19 00:06:20;;;;;;;3.92;2.20;;;9.60;99.90;;;;;;5079133;28;20027;-69
2022/12/19 00:08:48;;;;;;;4.57;2.22;;;9.60;99.90;;;;;;5079744;28;20067;-69
2022/12/19 00:11:16;;;;;;;5.25;2.65;;;9.60;99.90;;;;;;5078705;28;20117;-68
2022/12/19 00:13:42;;;;;;;7.22;2.20;;;9.60;99.90;;;;;;5078854;28;20081;-69
2022/12/19 00:16:13;;;;;;;4.15;2.28;;;9.60;99.90;;;;;;5078350;28;20017;-69
2022/12/19 00:18:40;;;;;;;4.75;2.28;;;9.60;99.90;;;;;;5077825;28;20457;-69
2022/12/19 00:21:06;;;;;;;5.80;2.72;;;9.60;99.90;;;;;;5078093;28;20032;-69
2022/12/19 00:23:33;;;;;;;3.83;2.38;;;9.60;99.90;;;;;;5079313;28;20024;-69
2022/12/19 00:26:10;;;;;;;6.65;2.67;;;9.70;99.90;;;;;;5078306;28;20444;-69
2022/12/19 00:28:36;;;;;;;5.75;2.42;;;9.70;99.90;;;;;;5078291;28;20498;-69
2022/12/19 00:31:02;;;;;;;6.18;2.08;;;9.70;99.90;;;;;;5078342;28;20048;-69
2022/12/19 00:33:28;;;;;;;3.53;2.20;;;9.70;99.90;;;;;;5078903;28;20041;-69
2022/12/19 00:36:03;;;;;;;4.75;2.40;;;9.60;99.90;;;;;;5079304;28;20036;-69
2022/12/19 00:38:29;;;;;;;4.72;2.67;;;9.60;99.90;;;;;;5079278;28;20028;-69
2022/12/19 00:41:04;;;;;;;5.30;1.77;;;9.60;99.90;;;;;;5079429;28;20021;-69
2022/12/19 00:43:30;;;;;;;3.90;2.00;;;9.60;99.90;;;;;;5079467;28;20396;-69
2022/12/19 00:45:56;;;;;;;4.22;2.50;;;9.60;99.90;;;;;;5061528;28;20082;-69
2022/12/19 00:48:21;;;;;;;4.25;2.40;;;9.60;99.90;;;;;;5079149;28;20093;-69
2022/12/19 00:50:47;;;;;;;5.75;2.05;;;9.60;99.90;;;;;;5079489;28;20024;-69
2022/12/19 00:53:12;;;;;;;3.85;2.17;;;9.60;99.90;;;;;;5078956;28;20027;-69
2022/12/19 00:55:38;;;;;;;5.13;2.42;;;9.60;99.90;;;;;;5061049;28;20051;-69
2022/12/19 00:58:04;;;;;;;3.92;2.05;;;9.60;99.90;;;;;;5061812;28;20404;-69
2022/12/19 01:00:30;;;;;;;3.67;2.30;;;9.50;99.90;;;;;;5067001;28;20051;-69
2022/12/19 01:02:55;;;;;;;5.13;2.38;;;9.50;99.90;;;;;;5060989;28;20024;-69
2022/12/19 01:05:21;;;;;;;3.53;2.20;;;9.50;99.90;;;;;;5079191;28;20503;-69
2022/12/19 01:07:47;;;;;;;2.58;2.08;;;9.50;99.90;;;;;;5079118;28;20032;-69
2022/12/19 01:10:12;;;;;;;3.67;2.38;;;9.50;99.90;;;;;;5078602;28;20401;-69
2022/12/19 01:12:47;;;;;;;4.80;2.35;;;9.50;99.90;;;;;;5078987;28;20405;-69
2022/12/19 01:15:21;;;;;;;3.90;2.10;;;9.40;99.90;;;;;;5078958;28;20025;-69
2022/12/19 01:17:48;;;;;;;4.97;2.55;;;9.40;99.90;;;;;;5060773;28;20017;-69
2022/12/19 01:20:16;;;;;;;4.93;2.50;;;9.40;99.90;;;;;;5078752;28;20059;-68
2022/12/19 01:22:43;;;;;;;4.03;2.25;;;9.40;99.90;;;;;;5078920;28;20036;-69
2022/12/19 01:25:08;;;;;;;3.75;2.42;;;9.40;99.90;;;;;;5077408;28;20040;-68
2022/12/19 01:27:34;;;;;;;4.57;2.50;;;9.40;99.90;;;;;;5078915;28;20031;-68
2022/12/19 01:30:00;;;;;;;3.95;2.53;;;9.40;99.90;;;;;;5078388;28;20039;-69
2022/12/19 01:32:25;;;;;;;3.22;2.15;;;9.40;99.90;;;;;;5078644;28;20091;-69
2022/12/19 01:34:51;;;;;;;5.22;2.63;;;9.40;99.90;;;;;;5078468;28;20035;-69
2022/12/19 01:37:17;;;;;;;4.15;2.30;;;9.40;99.90;;;;;;5060466;28;20035;-68
2022/12/19 01:39:43;;;;;;;3.78;2.15;;;9.40;99.90;;;;;;5060100;28;20081;-69
2022/12/19 01:42:17;;;;;;;5.35;2.45;;;9.40;99.90;;;;;;5078438;28;20040;-68
2022/12/19 01:45:05;;;;;;;3.70;2.40;;;9.40;99.90;;;;;;5060298;28;20029;-69
2022/12/19 01:47:52;;;;;;;3.65;2.20;;;9.40;99.90;;;;;;5060432;28;20412;-69
2022/12/19 01:50:24;;;;;;;5.15;2.72;;;9.50;99.90;;;;;;5059638;28;20548;-69
2022/12/19 01:52:51;;;;;;;3.08;2.10;;;9.40;99.90;;;;;;5060151;28;20028;-69
2022/12/19 01:55:17;;;;;;;3.50;2.03;;;9.50;99.90;;;;;;5060229;28;20024;-68
2022/12/19 01:57:42;;;;;;;7.80;2.70;;;9.50;99.90;;;;;;5060091;28;20020;-69
2022/12/19 02:00:09;;;;;;;4.10;2.55;;;9.50;99.90;;;;;;5078086;28;20501;-69
2022/12/19 02:02:42;;;;;;;4.50;2.55;;;9.50;99.90;;;;;;5077839;28;20064;-69
2022/12/19 02:05:08;;;;;;;4.88;2.50;;;9.40;99.90;;;;;;5078044;28;20074;-69
2022/12/19 02:07:35;;;;;;;4.13;2.50;;;9.50;99.90;;;;;;5077936;28;20032;-68
2022/12/19 02:10:01;;;;;;;5.45;3.00;;;9.50;99.90;;;;;;5077515;28;20052;-68
2022/12/19 02:12:32;;;;;;;5.07;2.05;;;9.50;99.90;;;;;;5077729;28;20501;-69
2022/12/19 02:14:59;;;;;;;4.90;3.10;;;9.50;99.90;;;;;;5077925;28;20020;-69
2022/12/19 02:17:37;;;;;;;3.47;2.28;;;9.50;99.90;;;;;;5077575;28;20024;-69
2022/12/19 02:20:49;;;;;;;5.53;2.75;;;9.50;99.90;;;;;;5077833;28;20029;-69
2022/12/19 02:23:39;;;;;;;4.10;2.45;;;9.40;99.90;;;;;;5077791;28;20101;-69
2022/12/19 02:26:30;;;;;;;3.75;2.20;;;9.50;99.90;;;;;;5059456;28;20776;-68
2022/12/19 02:29:23;;;;;;;3.63;2.15;;;9.40;99.90;;;;;;5077647;28;20618;-69
2022/12/19 02:32:03;;;;;;;2.78;2.20;;;9.50;99.90;;;;;;5059338;28;20024;-68
2022/12/19 02:34:40;;;;;;;3.10;2.08;;;9.50;99.90;;;;;;5059638;28;20025;-69
2022/12/19 02:37:16;;;;;;;3.15;2.13;;;9.50;99.90;;;;;;5077166;28;20017;-69
2022/12/19 02:39:57;;;;;;;4.70;2.40;;;9.50;99.90;;;;;;5077215;28;20028;-69
2022/12/19 02:42:29;;;;;;;5.93;2.13;;;9.50;99.90;;;;;;5059686;28;20033;-69
2022/12/19 02:45:00;;;;;;;3.00;1.87;;;9.50;99.90;;;;;;5077327;28;20028;-69
2022/12/19 02:47:27;;;;;;;3.85;2.13;;;9.40;99.90;;;;;;5077309;28;20271;-69
2022/12/19 02:49:53;;;;;;;3.78;2.00;;;9.50;99.90;;;;;;5077172;28;20124;-68
2022/12/19 02:52:18;;;;;;;3.20;1.98;;;9.50;99.90;;;;;;5059327;28;20048;-69
2022/12/19 02:54:46;;;;;;;3.28;1.80;;;9.40;99.90;;;;;;5077049;28;20020;-69
2022/12/19 02:57:24;;;;;;;4.90;2.42;;;9.50;99.90;;;;;;5077349;28;20024;-69
2022/12/19 02:59:52;;;;;;;3.80;1.98;;;9.50;99.90;;;;;;5077413;28;20074;-69
2022/12/19 03:02:37;;;;;;;5.13;2.55;;;9.40;99.90;;;;;;5077090;28;20029;-69
2022/12/19 03:05:20;;;;;;;4.53;2.20;;;9.50;99.90;;;;;;5077379;28;20389;-69
2022/12/19 03:07:51;;;;;;;5.38;2.40;;;9.50;99.90;;;;;;5076950;28;20034;-69
2022/12/19 03:10:28;;;;;;;8.55;2.95;;;9.50;99.90;;;;;;5076401;28;20076;-69
2022/12/19 03:13:00;;;;;;;5.45;2.40;;;9.40;99.90;;;;;;5059135;28;20028;-69
2022/12/19 03:15:26;;;;;;;3.80;1.95;;;9.40;99.90;;;;;;5059044;28;20025;-69
2022/12/19 03:17:57;;;;;;;5.07;2.10;;;9.40;99.90;;;;;;5077018;28;20024;-69
2022/12/19 03:20:34;;;;;;;3.60;2.10;;;9.40;99.90;;;;;;5076961;28;20039;-69
2022/12/19 03:22:59;;;;;;;5.13;2.45;;;9.40;99.90;;;;;;5077017;28;20028;-69
2022/12/19 03:25:27;;;;;;;3.35;2.05;;;9.40;99.90;;;;;;5076673;28;20520;-68
2022/12/19 03:27:54;;;;;;;5.70;2.17;;;9.40;99.90;;;;;;5077021;28;20033;-69
2022/12/19 03:30:20;;;;;;;3.10;1.90;;;9.40;99.90;;;;;;5076826;28;20020;-69
2022/12/19 03:32:47;;;;;;;4.47;2.20;;;9.40;99.90;;;;;;5058882;28;20028;-69
2022/12/19 03:35:27;;;;;;;4.70;2.40;;;9.40;99.90;;;;;;5076784;28;20031;-69
2022/12/19 03:37:55;;;;;;;3.05;1.92;;;9.40;99.90;;;;;;5052177;28;20554;-69
2022/12/19 03:40:24;;;;;;;4.10;2.58;;;9.40;99.90;;;;;;5076881;28;20025;-69
2022/12/19 03:43:09;;;;;;;3.20;2.25;;;9.50;99.90;;;;;;5076796;28;20039;-69
2022/12/19 03:45:54;;;;;;;3.72;2.17;;;9.50;99.90;;;;;;5076872;28;20074;-69
2022/12/19 03:48:24;;;;;;;6.18;2.00;;;9.50;99.90;;;;;;5076917;28;20540;-69
2022/12/19 03:51:19;;;;;;;3.38;2.00;;;9.50;99.90;;;;;;5062640;28;20021;-69
2022/12/19 03:53:52;;;;;;;3.05;2.00;;;9.50;99.90;;;;;;5057997;28;20119;-69
2022/12/19 03:56:37;;;;;;;4.03;2.20;;;9.50;99.90;;;;;;5080160;28;20097;-69
2022/12/19 03:59:14;;;;;;;3.97;1.98;;;9.50;99.90;;;;;;5080456;28;20384;-69
2022/12/19 04:01:41;;;;;;;3.67;1.92;;;9.50;99.90;;;;;;5080290;28;20031;-69
2022/12/19 04:04:11;;;;;;;4.40;2.28;;;9.50;99.90;;;;;;5080264;28;20107;-69
2022/12/19 04:06:38;;;;;;;5.05;2.50;;;9.50;99.90;;;;;;5080575;28;20016;-69
2022/12/19 04:09:05;;;;;;;4.32;2.50;;;9.50;99.90;;;;;;5080013;28;20079;-69
2022/12/19 04:11:37;;;;;;;2.95;1.90;;;9.50;99.90;;;;;;5061846;28;20046;-69
2022/12/19 04:14:07;;;;;;;4.57;2.50;;;9.50;99.90;;;;;;5080099;28;20389;-69
2022/12/19 04:16:44;;;;;;;4.55;2.35;;;9.50;99.90;;;;;;5080245;28;20050;-69
2022/12/19 04:19:43;;;;;;;4.07;2.15;;;9.50;99.90;;;;;;5080035;28;20044;-69
2022/12/19 04:22:28;;;;;;;3.92;1.92;;;9.50;99.90;;;;;;5079714;28;20086;-69
2022/12/19 04:24:56;;;;;;;3.47;1.95;;;9.50;99.90;;;;;;5061607;28;20477;-69
2022/12/19 04:27:22;;;;;;;2.97;2.08;;;9.50;99.90;;;;;;5080029;28;20035;-69
2022/12/19 04:29:51;;;;;;;2.75;1.98;;;9.50;99.90;;;;;;5079712;28;20426;-69
2022/12/19 04:32:18;;;;;;;3.38;1.80;;;9.50;99.90;;;;;;5079876;28;20162;-69
2022/12/19 04:34:43;;;;;;;3.85;2.30;;;9.50;99.90;;;;;;5079687;28;20012;-69
2022/12/19 04:37:10;;;;;;;3.45;2.30;;;9.50;99.90;;;;;;5079617;28;20560;-69
2022/12/19 04:39:36;;;;;;;3.40;1.80;;;9.50;99.90;;;;;;5079429;28;20012;-69
2022/12/19 04:42:02;;;;;;;2.65;1.92;;;9.50;99.90;;;;;;5079813;28;20029;-69
2022/12/19 04:44:27;;;;;;;4.75;2.22;;;9.50;99.90;;;;;;5079553;28;20025;-69
2022/12/19 04:46:53;;;;;;;4.38;2.38;;;9.50;99.90;;;;;;5079504;28;20020;-69
2022/12/19 04:49:18;;;;;;;2.92;2.05;;;9.50;99.90;;;;;;5079545;28;20024;-69
2022/12/19 04:51:44;;;;;;;4.22;2.20;;;9.50;99.90;;;;;;5079705;28;20029;-69
2022/12/19 04:54:10;;;;;;;6.28;2.47;;;9.50;99.90;;;;;;5061346;28;20073;-69
2022/12/19 04:56:35;;;;;;;3.50;2.17;;;9.50;99.90;;;;;;5079246;28;20392;-69
2022/12/19 04:59:01;;;;;;;4.78;2.20;;;9.50;99.90;;;;;;5079279;28;20024;-69
2022/12/19 05:01:27;;;;;;;5.40;2.20;;;9.50;99.90;;;;;;5079048;28;20043;-69
2022/12/19 05:03:52;;;;;;;4.18;2.35;;;9.50;99.90;;;;;;5079122;28;20025;-69
2022/12/19 05:06:19;;;;;;;6.03;2.25;;;9.50;99.90;;;;;;5060982;28;20059;-69
2022/12/19 05:08:44;;;;;;;3.55;2.00;;;9.50;99.90;;;;;;5079020;28;20029;-69
2022/12/19 05:11:12;;;;;;;5.22;2.75;;;9.50;99.90;;;;;;5060686;28;20101;-69
2022/12/19 05:13:38;;;;;;;5.53;2.22;;;9.50;99.90;;;;;;5078958;28;20059;-69
2022/12/19 05:16:07;;;;;;;3.38;2.38;;;9.50;99.90;;;;;;5078965;28;20028;-69
2022/12/19 05:18:34;;;;;;;6.60;2.70;;;9.50;99.90;;;;;;5078692;28;20016;-70
2022/12/19 05:21:00;;;;;;;3.63;2.47;;;9.50;99.90;;;;;;5078975;28;20071;-69
2022/12/19 05:23:26;;;;;;;4.65;2.35;;;9.50;99.90;;;;;;5077958;28;20477;-69
2022/12/19 05:25:52;;;;;;;4.82;2.40;;;9.50;99.90;;;;;;5078018;28;20099;-69
2022/12/19 05:28:18;;;;;;;2.78;2.10;;;9.50;99.90;;;;;;5078251;28;20110;-69
2022/12/19 05:30:45;;;;;;;3.35;2.05;;;9.50;99.90;;;;;;5077862;28;20029;-69
2022/12/19 05:33:11;;;;;;;4.20;2.10;;;9.50;99.90;;;;;;5078393;28;20028;-69
2022/12/19 05:35:36;;;;;;;3.88;1.92;;;9.50;99.90;;;;;;5078613;28;20016;-68
2022/12/19 05:38:02;;;;;;;5.78;2.20;;;9.50;99.90;;;;;;5078401;28;20469;-69
2022/12/19 05:40:28;;;;;;;4.03;2.00;;;9.50;99.90;;;;;;5078376;28;20092;-69
2022/12/19 05:42:54;;;;;;;4.35;2.08;;;9.50;99.90;;;;;;5078365;28;20533;-69
2022/12/19 05:45:20;;;;;;;3.00;2.03;;;9.50;99.90;;;;;;5078451;28;20058;-69
2022/12/19 05:47:46;;;;;;;3.83;2.50;;;9.50;99.90;;;;;;5078154;28;20029;-69
2022/12/19 05:50:16;;;;;;;4.05;2.60;;;9.50;99.90;;;;;;5078273;28;20020;-69
2022/12/19 05:52:42;;;;;;;2.88;1.95;;;9.50;99.90;;;;;;5078357;28;20039;-69
2022/12/19 05:55:09;;;;;;;4.05;1.90;;;9.50;99.90;;;;;;5077874;28;20021;-69
2022/12/19 05:57:34;;;;;;;5.72;2.67;;;9.50;99.90;;;;;;5060116;28;20459;-69
2022/12/19 06:00:01;;;;;;;2.97;2.25;;;9.50;99.90;;;;;;5060041;28;20025;-69
2022/12/19 06:02:30;;;;;;;2.83;2.05;;;9.50;99.90;;;;;;5077820;28;20033;-69
2022/12/19 06:04:56;;;;;;;3.97;2.30;;;9.50;99.90;;;;;;5078118;28;20056;-69
2022/12/19 06:07:21;;;;;;;4.07;2.10;;;9.50;99.90;;;;;;5077798;28;20029;-69
2022/12/19 06:09:47;;;;;;;4.93;2.00;;;9.50;99.90;;;;;;5077621;28;20520;-69
2022/12/19 06:12:13;;;;;;;3.42;2.20;;;9.50;99.90;;;;;;5059306;28;20021;-69
2022/12/19 06:14:38;;;;;;;3.35;2.10;;;9.50;99.90;;;;;;5059917;28;20029;-69
2022/12/19 06:17:04;;;;;;;5.32;2.30;;;9.60;99.90;;;;;;5077647;28;20397;-69
2022/12/19 06:19:30;;;;;;;2.92;2.00;;;9.60;99.90;;;;;;5077799;28;20023;-69
2022/12/19 06:21:55;;;;;;;5.05;2.10;;;9.50;99.90;;;;;;5077735;28;20528;-69
2022/12/19 06:24:23;;;;;;;3.80;2.05;;;9.60;99.90;;;;;;5077694;28;20055;-69
2022/12/19 06:26:49;;;;;;;3.38;2.08;;;9.60;99.90;;;;;;5077299;28;20025;-69
2022/12/19 06:29:15;;;;;;;6.00;2.28;;;9.60;99.90;;;;;;5077639;28;20396;-69
2022/12/19 06:31:41;;;;;;;4.25;2.30;;;9.60;99.90;;;;;;5077352;28;20057;-69
2022/12/19 06:34:09;;;;;;;3.65;2.15;;;9.60;99.90;;;;;;5077712;28;20392;-69
2022/12/19 06:36:35;;;;;;;3.00;2.10;;;9.60;99.90;;;;;;5059392;28;20029;-69
2022/12/19 06:39:01;;;;;;;2.67;1.70;;;9.60;99.90;;;;;;5077605;28;20464;-69
2022/12/19 06:44:14;;;;;;;2.80;1.90;;;9.60;99.90;;;;;;5077694;28;20553;-69
2022/12/19 06:46:40;;;;;;;2.40;1.75;;;9.60;99.90;;;;;;5077206;28;20021;-69
2022/12/19 06:49:07;;;;;;;5.28;2.10;;;9.60;99.90;;;;;;5077396;28;20024;-69
2022/12/19 06:51:33;;;;;;;3.33;1.98;;;9.60;99.90;;;;;;5059213;28;20063;-69
2022/12/19 06:53:59;;;;;;;4.65;2.20;;;9.60;99.90;;;;;;5077449;28;20024;-69
2022/12/19 06:56:25;;;;;;;4.05;2.42;;;9.60;99.90;;;;;;5076759;28;20029;-69
2022/12/19 06:58:50;;;;;;;3.95;2.10;;;9.60;99.90;;;;;;5076686;28;20024;-69
2022/12/19 07:01:31;;;;;;;2.78;1.98;;;9.60;99.90;;;;;;5059540;28;20480;-69
2022/12/19 07:03:57;;;;;;;4.20;1.77;;;9.60;99.90;;;;;;5076582;28;20024;-69
2022/12/19 07:06:22;;;;;;;3.17;2.08;;;9.60;99.90;;;;;;5076993;28;20039;-69
2022/12/19 07:08:48;;;;;;;5.05;2.22;;;9.70;99.90;;;;;;5077017;28;20031;-69
2022/12/19 07:11:14;;;;;;;5.07;1.90;;;9.70;99.90;;;;;;5076854;28;20048;-69
2022/12/19 07:13:39;;;;;;;4.28;2.00;;;9.70;99.90;;;;;;5076936;28;20052;-69
2022/12/19 07:16:06;;;;;;;2.97;1.80;;;9.70;99.90;;;;;;5076879;28;20043;-68
2022/12/19 07:18:38;;;;;;;3.97;1.90;;;9.70;99.90;;;;;;5059768;28;20515;-69
2022/12/19 07:21:05;;;;;;;3.75;1.98;;;9.70;99.90;;;;;;5063853;28;20024;-69
2022/12/19 07:23:31;;;;;;;3.95;2.22;;;9.70;99.90;;;;;;5074621;28;20416;-71
2022/12/19 07:25:57;;;;;;;3.83;2.10;;;9.70;99.90;;;;;;5079216;28;20024;-69
2022/12/19 07:28:23;;;;;;;4.90;2.50;;;9.70;99.90;;;;;;5080207;28;20066;-67
2022/12/19 07:30:48;;;;;;;3.83;1.90;;;9.70;99.90;;;;;;5079819;28;20029;-68
2022/12/19 07:33:14;;;;;;;4.13;1.92;;;9.80;99.90;;;;;;5079670;28;20032;-68
2022/12/19 07:35:40;;;;;;;4.95;2.08;;;9.80;99.90;;;;;;5070841;28;20016;-68
2022/12/19 07:38:06;;;;;;;6.70;2.33;;;9.80;99.90;;;;;;5080771;28;20025;-67
2022/12/19 07:40:33;;;;;;;5.57;2.08;;;9.80;99.90;;;;;;5062354;28;20035;-68
2022/12/19 07:43:04;;;;;;;3.08;1.90;;;9.80;99.90;;;;;;5080300;28;20033;-68
2022/12/19 07:45:30;;;;;;;4.18;2.17;;;9.80;99.90;;;;;;5079522;28;20051;-68
2022/12/19 07:48:00;;;;;;;3.85;1.88;;;9.80;99.90;;;;;;5079217;28;20415;-68
2022/12/19 07:50:25;;;;;;;4.05;2.13;;;9.80;99.90;;;;;;5079329;28;20016;-68
2022/12/19 07:52:51;;;;;;;3.63;1.83;;;9.90;99.90;;;;;;5079337;28;20021;-68
2022/12/19 07:55:16;;;;;;;7.03;2.10;;;9.90;99.90;;;;;;5080052;28;20705;-68
2022/12/19 07:57:42;;;;;;;2.88;1.70;;;9.90;99.90;;;;;;5080291;28;20020;-68
2022/12/19 08:00:08;;;;;;;2.88;2.00;;;9.90;99.90;;;;;;5074752;28;20052;-68
2022/12/19 08:02:34;;;;;;;3.70;1.83;;;9.90;99.90;;;;;;5079758;28;20028;-68
2022/12/19 08:05:00;;;;;;;3.47;2.03;;;9.90;99.90;;;;;;5080224;28;20520;-68
2022/12/19 08:07:25;;;;;;;7.13;2.40;;;9.90;99.90;;;;;;5080249;28;20031;-68
2022/12/19 08:09:51;;;;;;;5.60;2.42;;;9.90;99.90;;;;;;5079826;28;20071;-67
2022/12/19 08:12:17;;;;;;;4.63;2.60;;;9.90;99.90;;;;;;5066009;28;20064;-68
2022/12/19 08:14:42;;;;;;;3.70;2.10;;;9.90;99.90;;;;;;5079798;28;20497;-68
2022/12/19 08:17:08;;;;;;;8.88;2.25;;;9.90;99.90;;;;;;5079822;28;20021;-68
2022/12/19 08:19:34;;;;;;;2.70;1.55;;;10.00;99.90;;;;;;5079782;28;20033;-67
2022/12/19 08:21:59;;;;;;;3.85;2.00;;;10.00;99.90;;;;;;5079421;28;20449;-67
2022/12/19 08:24:25;;;;;;;4.43;1.88;;;10.00;99.90;;;;;;5079571;28;20060;-67
2022/12/19 08:26:50;;;;;;;4.10;2.10;;;10.00;99.90;;;;;;5068068;28;20052;-68
2022/12/19 08:29:16;;;;;;;4.25;2.17;;;10.00;99.90;;;;;;5079941;28;20031;-67
2022/12/19 08:31:42;;;;;;;6.03;2.58;;;10.00;99.90;;;;;;5079624;28;20154;-67
2022/12/19 08:34:07;;;;;;;5.78;2.15;;;10.00;99.90;;;;;;5079451;28;20374;-67
2022/12/19 08:36:33;;;;;;;6.55;2.50;;;10.00;99.90;;;;;;5079367;28;20025;-67
2022/12/19 08:38:59;;;;;;;5.45;2.10;;;10.00;99.90;;;;;;5079792;28;20029;-68
2022/12/19 08:41:24;;;;;;;7.85;3.10;;;10.00;99.90;;;;;;5079330;28;20039;-68
2022/12/19 08:43:52;;;;;;;6.18;2.50;;;10.00;99.90;;;;;;5079772;28;20078;-67
2022/12/19 08:46:19;;;;;;;5.80;1.95;;;10.00;99.90;;;;;;5079411;28;20035;-68
2022/12/19 08:48:45;;;;;;;5.15;2.00;;;10.00;99.90;;;;;;5079542;28;20032;-67
2022/12/19 08:51:12;;;;;;;8.05;2.53;;;10.10;99.90;;;;;;5079539;28;20061;-67
2022/12/19 08:53:40;;;;;;;4.57;2.15;;;10.00;99.90;;;;;;5079551;28;20064;-67
2022/12/19 08:56:10;;;;;;;3.78;2.22;;;10.00;99.90;;;;;;5079107;28;20020;-68
2022/12/19 08:58:35;;;;;;;6.25;2.53;;;10.10;99.90;;;;;;5061381;28;20033;-67
2022/12/19 09:01:04;;;;;;;4.40;2.00;;;10.10;99.90;;;;;;5079117;28;20045;-68
2022/12/19 09:03:30;;;;;;;4.43;2.40;;;10.10;99.90;;;;;;5060280;28;20028;-67
2022/12/19 09:06:00;;;;;;;6.47;2.50;;;10.10;99.90;;;;;;5078370;28;20066;-67
2022/12/19 09:08:27;;;;;;;4.47;2.38;;;10.10;99.90;;;;;;5077587;28;20078;-67
2022/12/19 09:11:01;;;;;;;4.13;2.47;;;10.10;99.90;;;;;;5078282;28;20146;-67
2022/12/19 09:13:28;;;;;;;5.68;2.55;;;10.00;99.90;;;;;;5078997;28;20059;-67
2022/12/19 09:16:10;;;;;;;5.93;2.72;;;10.10;99.90;;;;;;5078216;28;20021;-67
2022/12/19 09:18:36;;;;;;;5.95;2.35;;;10.10;99.90;;;;;;5061042;28;20082;-67
2022/12/19 09:21:03;;;;;;;5.95;2.72;;;10.10;99.90;;;;;;5079097;28;20020;-67
2022/12/19 09:23:30;;;;;;;5.18;2.78;;;10.10;99.90;;;;;;5079118;28;20021;-67
2022/12/19 09:26:17;;;;;;;3.60;2.10;;;10.10;99.90;;;;;;5078809;28;20500;-67
2022/12/19 09:28:45;;;;;;;4.82;2.80;;;10.10;99.90;;;;;;5059823;28;20051;-67
2022/12/19 09:31:13;;;;;;;3.47;2.20;;;10.10;99.90;;;;;;5060630;28;20017;-67
2022/12/19 09:33:39;;;;;;;4.35;2.45;;;10.10;99.90;;;;;;5078441;28;20492;-67
2022/12/19 09:36:06;;;;;;;7.15;3.50;;;10.10;99.90;;;;;;5078595;28;20048;-67
2022/12/19 09:38:33;;;;;;;6.40;2.88;;;10.20;99.90;;;;;;5078634;28;20021;-67
2022/12/19 09:41:38;;;;;;;5.35;2.50;;;10.20;99.90;;;;;;5078308;28;20500;-67
2022/12/19 09:44:18;;;;;;;4.10;2.28;;;10.20;99.90;;;;;;5047148;28;20035;-67
2022/12/19 09:46:54;;;;;;;4.28;2.13;;;10.20;99.90;;;;;;5077466;28;20021;-67
2022/12/19 09:49:29;;;;;;;4.25;2.20;;;10.20;99.90;;;;;;5078572;28;20477;-67
2022/12/19 09:52:03;;;;;;;3.08;2.03;;;10.20;99.90;;;;;;5078472;28;20075;-67
2022/12/19 09:54:32;;;;;;;;;;;10.30;99.90;;;;;;5078587;28;20389;-67
2022/12/19 09:57:01;;;;;;;4.38;2.10;;;10.20;99.90;;;;;;5077622;28;19947;-67
2022/12/19 09:59:53;;;;;;;4.50;2.20;;;10.30;99.90;;;;;;5075263;28;20064;-67
2022/12/19 10:02:34;;;;;;;4.38;2.17;;;10.30;99.90;;;;;;5066298;28;20102;-67
2022/12/19 10:05:25;;;;;;;4.28;2.20;;;10.30;99.90;;;;;;5074514;28;20021;-67
2022/12/19 10:07:52;;;;;;;2.95;1.67;;;10.30;99.90;;;;;;5056145;28;20404;-67
2022/12/19 10:10:44;;;;;;;3.50;2.08;;;10.30;99.90;;;;;;5076480;28;20496;-67
2022/12/19 10:13:23;;;;;;;4.35;2.13;;;10.40;99.90;;;;;;5076315;28;20041;-67
2022/12/19 10:16:17;;;;;;;6.18;2.80;;;10.40;99.90;;;;;;5076492;28;20396;-67
2022/12/19 10:18:59;;;;;;;4.82;2.65;;;10.40;99.90;;;;;;5076479;28;20029;-67
2022/12/19 10:21:38;;;;;;;2.83;1.80;;;10.50;99.90;;;;;;5076774;28;20028;-67
2022/12/19 10:24:37;;;;;;;4.22;2.15;;;10.50;99.90;;;;;;5076356;28;20070;-67
2022/12/19 10:27:32;;;;;;;4.20;2.22;;;10.50;99.90;;;;;;5075319;28;20017;-67
2022/12/19 10:30:10;;;;;;;3.70;2.13;;;10.50;99.90;;;;;;5074997;28;20041;-67
2022/12/19 10:32:55;;;;;;;6.13;2.58;;;10.60;99.90;;;;;;5077604;28;20027;-67
2022/12/19 10:35:22;;;;;;;5.32;2.40;;;10.60;99.90;;;;;;5077420;28;20021;-67
2022/12/19 10:37:58;;;;;;;3.83;2.28;;;10.60;99.90;;;;;;5077533;28;20017;-67
2022/12/19 10:40:33;;;;;;;6.10;2.22;;;10.70;99.90;;;;;;5059147;28;20443;-67
2022/12/19 10:42:59;;;;;;;4.22;1.88;;;10.70;99.90;;;;;;5077415;28;20066;-67
2022/12/19 10:45:30;;;;;;;6.45;2.63;;;10.70;99.90;;;;;;5077365;28;20107;-67
2022/12/19 10:47:57;;;;;;;5.00;2.38;;;10.80;99.90;;;;;;5077050;28;20523;-67
2022/12/19 10:50:28;;;;;;;4.30;2.17;;;10.80;99.90;;;;;;5059205;28;20565;-67
2022/12/19 10:53:10;;;;;;;6.18;2.45;;;10.80;99.90;;;;;;5059257;28;20078;-67
2022/12/19 10:55:48;;;;;;;6.45;2.28;;;10.90;99.90;;;;;;5077370;28;20496;-67
2022/12/19 10:58:25;;;;;;;5.70;2.63;;;11.00;99.90;;;;;;5059079;28;20027;-67
2022/12/19 11:00:57;;;;;;;4.97;2.55;;;10.90;99.90;;;;;;5077195;28;20020;-67
2022/12/19 11:03:23;;;;;;;6.00;2.47;;;11.00;99.90;;;;;;5077217;28;20484;-67
2022/12/19 11:05:54;;;;;;;6.90;2.80;;;11.00;99.90;;;;;;5076756;28;20063;-67
2022/12/19 11:08:35;;;;;;;5.10;2.58;;;11.00;99.90;;;;;;5059133;28;20063;-67
2022/12/19 11:11:03;;;;;;;6.07;2.67;;;11.00;99.90;;;;;;5074174;28;20037;-67
2022/12/19 11:13:46;;;;;;;6.35;2.70;;;11.00;99.90;;;;;;5069343;28;20020;-67
2022/12/19 11:16:19;;;;;;;6.93;2.55;;;11.10;99.90;;;;;;5076615;28;20021;-67
2022/12/19 11:18:46;;;;;;;7.82;2.17;;;11.10;99.90;;;;;;5058736;28;20020;-67
2022/12/19 11:21:17;;;;;;;7.70;2.72;;;11.10;99.90;;;;;;5077076;28;20055;-67
2022/12/19 11:23:58;;;;;;;5.95;2.63;;;11.20;99.90;;;;;;5058615;28;20024;-67
2022/12/19 11:26:27;;;;;;;7.05;2.58;;;11.20;99.90;;;;;;5076773;28;20388;-67
2022/12/19 11:28:52;;;;;;;10.50;3.47;;;11.20;99.90;;;;;;5076721;28;20151;-67
2022/12/19 11:31:20;;;;;;;9.48;3.17;;;11.30;99.90;;;;;;5076740;28;20088;-67
2022/12/19 11:33:52;;;;;;;5.82;2.88;;;11.30;99.90;;;;;;5076750;28;20020;-67
2022/12/19 11:36:59;;;;;;;9.13;3.10;;;11.40;99.90;;;;;;5076880;28;20023;-67
2022/12/19 11:39:30;;;;;;;8.00;3.10;;;11.50;99.90;;;;;;5003633;28;20119;-67
2022/12/19 11:42:31;;;;;;;8.85;3.33;;;11.60;99.90;;;;;;5076716;28;20404;-67
2022/12/19 11:45:15;;;;;;;7.65;2.72;;;11.70;99.90;;;;;;5051902;28;20052;-67
2022/12/19 11:47:50;;;;;;;8.07;2.88;;;11.80;99.90;;;;;;5076580;28;20426;-67
2022/12/19 11:50:26;;;;;;;9.60;2.80;;;11.50;99.90;;;;;;5076730;28;20078;-67
2022/12/19 11:52:58;;;;;;;5.35;2.47;;;;;;;;;;5076727;28;20102;-67
2022/12/19 11:55:55;;;;;;;7.82;3.00;;;11.60;99.90;;;;;;5058534;28;20445;-67
2022/12/19 11:58:24;;;;;;;5.60;2.55;;;;;;;;;;5051383;28;20512;-67
2022/12/19 12:00:56;;;;;;;6.88;2.58;;;;;;;;;;5058535;28;20025;-67
2022/12/19 12:03:51;;;;;;;5.97;2.40;;;11.60;99.90;;;;;;5058619;28;20090;-67
2022/12/19 12:06:17;;;;;;;7.45;2.72;;;11.80;99.90;;;;;;5076669;28;20538;-67
2022/12/19 12:09:04;;;;;;;7.22;2.55;;;11.80;99.90;;;;;;5076428;28;20024;-67
2022/12/19 12:11:51;;;;;;;5.38;2.60;;;11.90;99.90;;;;;;5079549;28;20064;-67
2022/12/19 12:14:28;;;;;;;7.25;3.15;;;11.90;99.90;;;;;;5080194;28;20462;-67
2022/12/19 12:17:30;;;;;;;7.63;2.85;;;11.90;99.90;;;;;;5079982;28;20013;-67
2022/12/19 12:20:02;;;;;;;8.73;2.78;;;11.90;99.90;;;;;;5054535;28;20036;-67
2022/12/19 12:22:40;;;;;;;5.80;2.78;;;11.90;99.90;;;;;;5061766;28;20076;-67
2022/12/19 12:25:43;;;;;;;8.65;2.90;;;11.90;99.90;;;;;;5079654;28;20039;-67
2022/12/19 12:28:17;;;;;;;6.78;3.05;;;12.00;99.90;;;;;;5079598;28;20017;-67
2022/12/19 12:31:01;;;;;;;6.43;2.83;;;12.00;99.90;;;;;;5061810;28;20029;-67
2022/12/19 12:33:36;;;;;;;5.65;2.88;;;12.00;99.90;;;;;;5061524;28;20477;-67
2022/12/19 12:36:15;;;;;;;6.70;2.50;;;12.10;99.90;;;;;;5079653;28;20634;-67
2022/12/19 12:38:49;;;;;;;9.82;3.17;;;12.10;99.90;;;;;;5066674;28;20024;-67
2022/12/19 12:44:29;;;;;;;5.78;2.83;;;12.20;99.90;;;;;;5079165;28;20062;-67
2022/12/19 12:47:03;;;;;;;9.38;2.50;;;12.20;99.90;;;;;;5079483;28;20021;-67
2022/12/19 12:49:43;;;;;;;7.55;2.78;;;12.20;99.90;;;;;;5079207;28;20540;-67
2022/12/19 12:52:20;;;;;;;7.13;2.80;;;12.20;99.90;;;;;;5061382;28;20024;-66
2022/12/19 12:54:48;;;;;;;4.63;2.13;;;12.20;99.90;;;;;;5079223;28;20032;-67
2022/12/19 12:57:31;;;;;;;10.32;2.88;;;12.30;99.90;;;;;;5079372;28;20469;-67
2022/12/19 13:00:18;;;;;;;6.00;2.50;;;12.30;99.90;;;;;;5061205;28;20029;-67
2022/12/19 13:02:55;;;;;;;5.88;2.40;;;12.30;99.90;;;;;;5079077;28;20461;-67
2022/12/19 13:05:51;;;;;;;7.50;2.42;;;12.30;99.90;;;;;;5079470;28;20576;-67
2022/12/19 13:08:43;;;;;;;8.35;2.22;;;12.30;99.90;;;;;;5078994;28;20079;-67
2022/12/19 13:12:58;;;;;;;8.05;2.47;;;12.40;99.90;;;;;;5057718;28;20051;-67
2022/12/19 13:13:58;;;;;;;8.68;2.38;;;12.40;99.90;;;;;;5078812;28;20040;-67
2022/12/19 13:16:42;;;;;;;6.85;2.25;;;12.40;99.90;;;;;;5079002;28;20028;-67
2022/12/19 13:19:33;;;;;;;6.57;2.33;;;12.50;99.90;;;;;;5078905;28;20016;-67
2022/12/19 13:22:08;;;;;;;8.63;2.80;;;12.50;99.90;;;;;;5078648;28;20100;-67
2022/12/19 13:24:44;;;;;;;8.32;2.50;;;12.50;99.90;;;;;;5078733;28;20469;-68